sensor_id;sensor_type;location;lat;lon;timestamp;P1;durP1;ratioP1;P2;durP2;ratioP2
75506;SDS011;64086;43.220;27.878;2023-09-19T00:01:07;12.48;;;8.82;;
75506;SDS011;64086;43.220;27.878;2023-09-19T00:03:34;12.57;;;9.20;;
75506;SDS011;64086;43.220;27.878;2023-09-19T00:06:02;13.73;;;9.77;;
75506;SDS011;64086;43.220;27.878;2023-09-19T00:08:28;11.23;;;9.70;;
75506;SDS011;64086;43.220;27.878;2023-09-19T00:10:53;15.05;;;9.25;;
75506;SDS011;64086;43.220;27.878;2023-09-19T00:13:19;10.98;;;9.30;;
75506;SDS011;64086;43.220;27.878;2023-09-19T00:15:46;12.68;;;9.25;;
75506;SDS011;64086;43.220;27.878;2023-09-19T00:18:16;12.65;;;9.23;;
75506;SDS011;64086;43.220;27.878;2023-09-19T00:20:46;14.13;;;9.05;;
75506;SDS011;64086;43.220;27.878;2023-09-19T00:23:16;13.02;;;9.30;;
75506;SDS011;64086;43.220;27.878;2023-09-19T00:25:42;10.68;;;8.98;;
75506;SDS011;64086;43.220;27.878;2023-09-19T00:28:07;18.15;;;9.73;;
75506;SDS011;64086;43.220;27.878;2023-09-19T00:30:33;17.95;;;9.82;;
75506;SDS011;64086;43.220;27.878;2023-09-19T00:32:59;17.85;;;9.63;;
75506;SDS011;64086;43.220;27.878;2023-09-19T00:35:26;16.35;;;9.63;;
75506;SDS011;64086;43.220;27.878;2023-09-19T00:37:52;18.05;;;9.98;;
75506;SDS011;64086;43.220;27.878;2023-09-19T00:40:18;19.83;;;9.77;;
75506;SDS011;64086;43.220;27.878;2023-09-19T00:42:44;15.98;;;9.95;;
75506;SDS011;64086;43.220;27.878;2023-09-19T00:45:11;17.30;;;9.85;;
75506;SDS011;64086;43.220;27.878;2023-09-19T00:47:42;16.75;;;8.95;;
75506;SDS011;64086;43.220;27.878;2023-09-19T00:50:10;13.57;;;9.05;;
75506;SDS011;64086;43.220;27.878;2023-09-19T00:52:39;18.05;;;9.75;;
75506;SDS011;64086;43.220;27.878;2023-09-19T00:55:07;19.63;;;10.85;;
75506;SDS011;64086;43.220;27.878;2023-09-19T00:57:37;17.17;;;9.55;;
75506;SDS011;64086;43.220;27.878;2023-09-19T01:00:03;19.42;;;10.60;;
75506;SDS011;64086;43.220;27.878;2023-09-19T01:02:31;17.48;;;9.98;;
75506;SDS011;64086;43.220;27.878;2023-09-19T01:04:57;18.23;;;9.40;;
75506;SDS011;64086;43.220;27.878;2023-09-19T01:07:23;17.73;;;9.77;;
75506;SDS011;64086;43.220;27.878;2023-09-19T01:09:49;18.40;;;10.18;;
75506;SDS011;64086;43.220;27.878;2023-09-19T01:12:16;22.38;;;10.52;;
75506;SDS011;64086;43.220;27.878;2023-09-19T01:14:59;21.67;;;10.15;;
75506;SDS011;64086;43.220;27.878;2023-09-19T01:17:36;20.55;;;10.25;;
75506;SDS011;64086;43.220;27.878;2023-09-19T01:23:10;15.93;;;10.13;;
75506;SDS011;64086;43.220;27.878;2023-09-19T01:31:12;19.45;;;10.40;;
75506;SDS011;64086;43.220;27.878;2023-09-19T01:33:56;17.80;;;10.30;;
75506;SDS011;64086;43.220;27.878;2023-09-19T01:36:28;20.38;;;10.52;;
75506;SDS011;64086;43.220;27.878;2023-09-19T01:38:54;15.63;;;10.05;;
75506;SDS011;64086;43.220;27.878;2023-09-19T01:41:33;14.98;;;10.48;;
75506;SDS011;64086;43.220;27.878;2023-09-19T01:44:15;17.75;;;10.75;;
75506;SDS011;64086;43.220;27.878;2023-09-19T01:52:15;16.13;;;10.35;;
75506;SDS011;64086;43.220;27.878;2023-09-19T01:54:46;18.08;;;10.25;;
75506;SDS011;64086;43.220;27.878;2023-09-19T01:57:17;17.60;;;10.63;;
75506;SDS011;64086;43.220;27.878;2023-09-19T01:59:48;15.75;;;10.25;;
75506;SDS011;64086;43.220;27.878;2023-09-19T02:02:17;17.60;;;11.23;;
75506;SDS011;64086;43.220;27.878;2023-09-19T02:04:47;18.63;;;10.75;;
75506;SDS011;64086;43.220;27.878;2023-09-19T02:07:14;16.02;;;10.93;;
75506;SDS011;64086;43.220;27.878;2023-09-19T02:09:40;14.77;;;10.80;;
75506;SDS011;64086;43.220;27.878;2023-09-19T02:12:08;20.52;;;10.98;;
75506;SDS011;64086;43.220;27.878;2023-09-19T02:14:34;13.02;;;10.50;;
75506;SDS011;64086;43.220;27.878;2023-09-19T02:17:01;17.08;;;10.90;;
75506;SDS011;64086;43.220;27.878;2023-09-19T02:19:28;16.80;;;11.15;;
75506;SDS011;64086;43.220;27.878;2023-09-19T02:21:55;16.63;;;10.65;;
75506;SDS011;64086;43.220;27.878;2023-09-19T02:24:20;17.52;;;10.90;;
75506;SDS011;64086;43.220;27.878;2023-09-19T02:26:46;17.63;;;10.82;;
75506;SDS011;64086;43.220;27.878;2023-09-19T02:29:12;16.85;;;11.10;;
75506;SDS011;64086;43.220;27.878;2023-09-19T02:31:38;17.77;;;10.77;;
75506;SDS011;64086;43.220;27.878;2023-09-19T02:34:04;14.20;;;10.55;;
75506;SDS011;64086;43.220;27.878;2023-09-19T02:36:31;16.60;;;10.60;;
75506;SDS011;64086;43.220;27.878;2023-09-19T02:38:57;15.65;;;9.80;;
75506;SDS011;64086;43.220;27.878;2023-09-19T02:41:22;15.88;;;10.80;;
75506;SDS011;64086;43.220;27.878;2023-09-19T02:43:48;15.57;;;11.43;;
75506;SDS011;64086;43.220;27.878;2023-09-19T02:46:13;17.02;;;11.27;;
75506;SDS011;64086;43.220;27.878;2023-09-19T02:48:39;16.20;;;11.02;;
75506;SDS011;64086;43.220;27.878;2023-09-19T02:51:04;14.55;;;10.95;;
75506;SDS011;64086;43.220;27.878;2023-09-19T02:53:30;14.43;;;10.80;;
75506;SDS011;64086;43.220;27.878;2023-09-19T02:55:58;14.88;;;11.13;;
75506;SDS011;64086;43.220;27.878;2023-09-19T02:58:24;16.25;;;12.13;;
75506;SDS011;64086;43.220;27.878;2023-09-19T03:00:50;16.35;;;11.18;;
75506;SDS011;64086;43.220;27.878;2023-09-19T03:03:16;17.40;;;12.38;;
75506;SDS011;64086;43.220;27.878;2023-09-19T03:05:42;13.55;;;11.80;;
75506;SDS011;64086;43.220;27.878;2023-09-19T03:08:12;14.20;;;10.88;;
75506;SDS011;64086;43.220;27.878;2023-09-19T03:10:40;13.27;;;11.52;;
75506;SDS011;64086;43.220;27.878;2023-09-19T03:13:06;15.88;;;11.30;;
75506;SDS011;64086;43.220;27.878;2023-09-19T03:15:34;17.27;;;11.38;;
75506;SDS011;64086;43.220;27.878;2023-09-19T03:18:04;14.60;;;11.77;;
75506;SDS011;64086;43.220;27.878;2023-09-19T03:20:29;17.08;;;11.75;;
75506;SDS011;64086;43.220;27.878;2023-09-19T03:22:55;14.85;;;12.02;;
75506;SDS011;64086;43.220;27.878;2023-09-19T03:25:22;16.73;;;12.55;;
75506;SDS011;64086;43.220;27.878;2023-09-19T03:27:48;17.33;;;12.98;;
75506;SDS011;64086;43.220;27.878;2023-09-19T03:30:13;15.48;;;13.27;;
75506;SDS011;64086;43.220;27.878;2023-09-19T03:32:46;15.18;;;12.68;;
75506;SDS011;64086;43.220;27.878;2023-09-19T03:35:12;14.93;;;12.90;;
75506;SDS011;64086;43.220;27.878;2023-09-19T03:37:40;18.55;;;13.65;;
75506;SDS011;64086;43.220;27.878;2023-09-19T03:40:07;18.63;;;13.50;;
75506;SDS011;64086;43.220;27.878;2023-09-19T03:42:33;15.55;;;14.00;;
75506;SDS011;64086;43.220;27.878;2023-09-19T03:45:01;14.88;;;13.13;;
75506;SDS011;64086;43.220;27.878;2023-09-19T03:47:29;19.02;;;13.90;;
75506;SDS011;64086;43.220;27.878;2023-09-19T03:49:54;16.13;;;13.60;;
75506;SDS011;64086;43.220;27.878;2023-09-19T03:52:20;17.00;;;13.43;;
75506;SDS011;64086;43.220;27.878;2023-09-19T03:54:45;16.63;;;13.27;;
75506;SDS011;64086;43.220;27.878;2023-09-19T03:57:11;15.27;;;13.07;;
75506;SDS011;64086;43.220;27.878;2023-09-19T03:59:37;17.65;;;13.48;;
75506;SDS011;64086;43.220;27.878;2023-09-19T04:02:03;19.52;;;13.98;;
75506;SDS011;64086;43.220;27.878;2023-09-19T04:04:29;16.15;;;13.88;;
75506;SDS011;64086;43.220;27.878;2023-09-19T04:06:55;17.45;;;14.23;;
75506;SDS011;64086;43.220;27.878;2023-09-19T04:09:20;19.30;;;14.65;;
75506;SDS011;64086;43.220;27.878;2023-09-19T04:11:46;17.13;;;13.57;;
75506;SDS011;64086;43.220;27.878;2023-09-19T04:14:11;19.50;;;14.65;;
75506;SDS011;64086;43.220;27.878;2023-09-19T04:16:37;17.40;;;14.63;;
75506;SDS011;64086;43.220;27.878;2023-09-19T04:19:04;16.98;;;15.18;;
75506;SDS011;64086;43.220;27.878;2023-09-19T04:21:30;17.23;;;14.38;;
75506;SDS011;64086;43.220;27.878;2023-09-19T04:23:56;20.20;;;14.40;;
75506;SDS011;64086;43.220;27.878;2023-09-19T04:26:21;18.45;;;13.43;;
75506;SDS011;64086;43.220;27.878;2023-09-19T04:28:47;16.85;;;13.50;;
75506;SDS011;64086;43.220;27.878;2023-09-19T04:31:12;16.48;;;13.57;;
75506;SDS011;64086;43.220;27.878;2023-09-19T04:33:39;18.20;;;15.88;;
75506;SDS011;64086;43.220;27.878;2023-09-19T04:36:04;17.40;;;15.35;;
75506;SDS011;64086;43.220;27.878;2023-09-19T04:38:32;20.00;;;14.52;;
75506;SDS011;64086;43.220;27.878;2023-09-19T04:40:58;18.85;;;14.73;;
75506;SDS011;64086;43.220;27.878;2023-09-19T04:43:24;21.42;;;16.10;;
75506;SDS011;64086;43.220;27.878;2023-09-19T04:45:49;23.08;;;17.08;;
75506;SDS011;64086;43.220;27.878;2023-09-19T04:48:16;19.38;;;16.95;;
75506;SDS011;64086;43.220;27.878;2023-09-19T04:50:41;20.23;;;16.80;;
75506;SDS011;64086;43.220;27.878;2023-09-19T04:53:08;20.38;;;18.05;;
75506;SDS011;64086;43.220;27.878;2023-09-19T04:55:33;22.05;;;18.05;;
75506;SDS011;64086;43.220;27.878;2023-09-19T04:57:58;22.83;;;18.10;;
75506;SDS011;64086;43.220;27.878;2023-09-19T05:00:24;22.10;;;16.42;;
75506;SDS011;64086;43.220;27.878;2023-09-19T05:02:53;18.73;;;16.83;;
75506;SDS011;64086;43.220;27.878;2023-09-19T05:05:21;18.13;;;16.27;;
75506;SDS011;64086;43.220;27.878;2023-09-19T05:07:47;20.63;;;16.95;;
75506;SDS011;64086;43.220;27.878;2023-09-19T05:10:13;20.75;;;16.15;;
75506;SDS011;64086;43.220;27.878;2023-09-19T05:12:39;19.40;;;17.00;;
75506;SDS011;64086;43.220;27.878;2023-09-19T05:15:06;18.23;;;16.20;;
75506;SDS011;64086;43.220;27.878;2023-09-19T05:17:35;19.17;;;15.88;;
75506;SDS011;64086;43.220;27.878;2023-09-19T05:20:01;20.33;;;15.77;;
75506;SDS011;64086;43.220;27.878;2023-09-19T05:22:40;20.15;;;15.35;;
75506;SDS011;64086;43.220;27.878;2023-09-19T05:25:06;19.45;;;15.45;;
75506;SDS011;64086;43.220;27.878;2023-09-19T05:27:32;21.75;;;16.20;;
75506;SDS011;64086;43.220;27.878;2023-09-19T05:29:58;17.52;;;15.05;;
75506;SDS011;64086;43.220;27.878;2023-09-19T05:32:24;19.65;;;16.90;;
75506;SDS011;64086;43.220;27.878;2023-09-19T05:34:50;22.33;;;16.90;;
75506;SDS011;64086;43.220;27.878;2023-09-19T05:37:18;18.55;;;16.83;;
75506;SDS011;64086;43.220;27.878;2023-09-19T05:39:44;20.30;;;16.25;;
75506;SDS011;64086;43.220;27.878;2023-09-19T05:42:10;21.30;;;17.38;;
75506;SDS011;64086;43.220;27.878;2023-09-19T05:44:35;20.65;;;17.50;;
75506;SDS011;64086;43.220;27.878;2023-09-19T05:47:01;97.90;;;89.65;;
75506;SDS011;64086;43.220;27.878;2023-09-19T05:49:28;122.18;;;110.85;;
75506;SDS011;64086;43.220;27.878;2023-09-19T05:51:53;23.50;;;21.00;;
75506;SDS011;64086;43.220;27.878;2023-09-19T05:54:20;20.15;;;18.08;;
75506;SDS011;64086;43.220;27.878;2023-09-19T05:56:45;19.05;;;16.98;;
75506;SDS011;64086;43.220;27.878;2023-09-19T05:59:12;57.92;;;52.55;;
75506;SDS011;64086;43.220;27.878;2023-09-19T06:01:40;54.75;;;49.85;;
75506;SDS011;64086;43.220;27.878;2023-09-19T06:04:07;38.25;;;35.03;;
75506;SDS011;64086;43.220;27.878;2023-09-19T06:06:33;20.17;;;17.67;;
75506;SDS011;64086;43.220;27.878;2023-09-19T06:09:04;18.63;;;16.80;;
75506;SDS011;64086;43.220;27.878;2023-09-19T06:11:31;22.42;;;17.40;;
75506;SDS011;64086;43.220;27.878;2023-09-19T06:13:59;22.58;;;17.60;;
75506;SDS011;64086;43.220;27.878;2023-09-19T06:16:27;20.17;;;17.85;;
75506;SDS011;64086;43.220;27.878;2023-09-19T06:18:54;20.80;;;18.58;;
75506;SDS011;64086;43.220;27.878;2023-09-19T06:21:21;21.50;;;19.17;;
75506;SDS011;64086;43.220;27.878;2023-09-19T06:23:47;21.20;;;17.00;;
75506;SDS011;64086;43.220;27.878;2023-09-19T06:26:12;24.60;;;19.83;;
75506;SDS011;64086;43.220;27.878;2023-09-19T06:28:38;19.35;;;17.40;;
75506;SDS011;64086;43.220;27.878;2023-09-19T06:31:04;19.75;;;17.67;;
75506;SDS011;64086;43.220;27.878;2023-09-19T06:33:34;19.13;;;17.15;;
75506;SDS011;64086;43.220;27.878;2023-09-19T06:36:03;17.90;;;15.80;;
75506;SDS011;64086;43.220;27.878;2023-09-19T06:38:29;17.10;;;15.32;;
75506;SDS011;64086;43.220;27.878;2023-09-19T06:40:56;20.42;;;15.65;;
75506;SDS011;64086;43.220;27.878;2023-09-19T06:43:22;16.77;;;15.10;;
75506;SDS011;64086;43.220;27.878;2023-09-19T06:45:48;16.27;;;14.57;;
75506;SDS011;64086;43.220;27.878;2023-09-19T06:48:15;16.60;;;14.98;;
75506;SDS011;64086;43.220;27.878;2023-09-19T06:50:41;17.95;;;13.38;;
75506;SDS011;64086;43.220;27.878;2023-09-19T06:53:09;23.50;;;13.95;;
75506;SDS011;64086;43.220;27.878;2023-09-19T06:55:35;14.68;;;13.07;;
75506;SDS011;64086;43.220;27.878;2023-09-19T06:58:01;18.00;;;13.88;;
75506;SDS011;64086;43.220;27.878;2023-09-19T07:00:27;15.98;;;14.50;;
75506;SDS011;64086;43.220;27.878;2023-09-19T07:03:00;17.75;;;16.05;;
75506;SDS011;64086;43.220;27.878;2023-09-19T07:05:35;20.17;;;18.35;;
75506;SDS011;64086;43.220;27.878;2023-09-19T07:08:04;20.95;;;18.95;;
75506;SDS011;64086;43.220;27.878;2023-09-19T07:10:31;22.63;;;20.52;;
75506;SDS011;64086;43.220;27.878;2023-09-19T07:13:00;22.83;;;20.85;;
75506;SDS011;64086;43.220;27.878;2023-09-19T07:15:28;20.40;;;18.48;;
75506;SDS011;64086;43.220;27.878;2023-09-19T07:17:56;19.75;;;17.77;;
75506;SDS011;64086;43.220;27.878;2023-09-19T07:20:22;16.67;;;15.10;;
75506;SDS011;64086;43.220;27.878;2023-09-19T07:22:50;14.43;;;13.20;;
75506;SDS011;64086;43.220;27.878;2023-09-19T07:25:16;15.18;;;12.60;;
75506;SDS011;64086;43.220;27.878;2023-09-19T07:27:42;11.48;;;10.43;;
75506;SDS011;64086;43.220;27.878;2023-09-19T07:30:08;13.23;;;11.75;;
75506;SDS011;64086;43.220;27.878;2023-09-19T07:32:34;9.68;;;8.88;;
75506;SDS011;64086;43.220;27.878;2023-09-19T07:35:03;9.95;;;9.10;;
75506;SDS011;64086;43.220;27.878;2023-09-19T07:37:29;9.77;;;8.90;;
75506;SDS011;64086;43.220;27.878;2023-09-19T07:39:58;9.20;;;8.30;;
75506;SDS011;64086;43.220;27.878;2023-09-19T07:42:34;8.40;;;7.70;;
75506;SDS011;64086;43.220;27.878;2023-09-19T07:45:06;8.05;;;7.35;;
75506;SDS011;64086;43.220;27.878;2023-09-19T07:47:32;7.88;;;7.28;;
75506;SDS011;64086;43.220;27.878;2023-09-19T07:49:59;7.35;;;6.78;;
75506;SDS011;64086;43.220;27.878;2023-09-19T07:52:27;11.93;;;10.60;;
75506;SDS011;64086;43.220;27.878;2023-09-19T07:54:53;21.02;;;11.20;;
75506;SDS011;64086;43.220;27.878;2023-09-19T07:57:18;10.65;;;8.15;;
75506;SDS011;64086;43.220;27.878;2023-09-19T07:59:45;12.63;;;8.60;;
75506;SDS011;64086;43.220;27.878;2023-09-19T08:02:10;8.93;;;8.13;;
75506;SDS011;64086;43.220;27.878;2023-09-19T08:04:43;19.10;;;9.40;;
75506;SDS011;64086;43.220;27.878;2023-09-19T08:07:11;11.88;;;8.38;;
75506;SDS011;64086;43.220;27.878;2023-09-19T08:09:38;9.45;;;7.97;;
75506;SDS011;64086;43.220;27.878;2023-09-19T08:12:04;8.93;;;8.02;;
75506;SDS011;64086;43.220;27.878;2023-09-19T08:14:32;9.93;;;8.18;;
75506;SDS011;64086;43.220;27.878;2023-09-19T08:16:58;8.57;;;7.47;;
75506;SDS011;64086;43.220;27.878;2023-09-19T08:19:24;9.10;;;7.25;;
75506;SDS011;64086;43.220;27.878;2023-09-19T08:21:57;12.25;;;6.68;;
75506;SDS011;64086;43.220;27.878;2023-09-19T08:24:29;7.30;;;6.60;;
75506;SDS011;64086;43.220;27.878;2023-09-19T08:26:56;6.53;;;5.93;;
75506;SDS011;64086;43.220;27.878;2023-09-19T08:29:22;6.07;;;5.57;;
75506;SDS011;64086;43.220;27.878;2023-09-19T08:31:55;6.82;;;5.75;;
75506;SDS011;64086;43.220;27.878;2023-09-19T08:34:24;6.95;;;6.35;;
75506;SDS011;64086;43.220;27.878;2023-09-19T08:36:53;6.65;;;5.90;;
75506;SDS011;64086;43.220;27.878;2023-09-19T08:39:24;8.23;;;5.90;;
75506;SDS011;64086;43.220;27.878;2023-09-19T08:41:57;8.80;;;5.93;;
75506;SDS011;64086;43.220;27.878;2023-09-19T08:44:24;6.65;;;5.95;;
75506;SDS011;64086;43.220;27.878;2023-09-19T08:46:49;10.52;;;5.80;;
75506;SDS011;64086;43.220;27.878;2023-09-19T08:49:24;6.22;;;5.60;;
75506;SDS011;64086;43.220;27.878;2023-09-19T08:52:12;6.78;;;5.72;;
75506;SDS011;64086;43.220;27.878;2023-09-19T08:54:56;6.95;;;5.65;;
75506;SDS011;64086;43.220;27.878;2023-09-19T08:57:26;6.00;;;5.15;;
75506;SDS011;64086;43.220;27.878;2023-09-19T08:59:54;6.03;;;5.43;;
75506;SDS011;64086;43.220;27.878;2023-09-19T09:02:20;6.28;;;5.68;;
75506;SDS011;64086;43.220;27.878;2023-09-19T09:04:46;7.32;;;5.68;;
75506;SDS011;64086;43.220;27.878;2023-09-19T09:07:14;5.45;;;5.05;;
75506;SDS011;64086;43.220;27.878;2023-09-19T09:09:40;5.78;;;5.28;;
75506;SDS011;64086;43.220;27.878;2023-09-19T09:12:11;6.80;;;5.20;;
75506;SDS011;64086;43.220;27.878;2023-09-19T09:14:37;6.60;;;5.90;;
75506;SDS011;64086;43.220;27.878;2023-09-19T09:17:03;6.15;;;5.65;;
75506;SDS011;64086;43.220;27.878;2023-09-19T09:19:29;5.68;;;4.82;;
75506;SDS011;64086;43.220;27.878;2023-09-19T09:22:05;6.78;;;5.50;;
75506;SDS011;64086;43.220;27.878;2023-09-19T09:24:34;6.03;;;5.53;;
75506;SDS011;64086;43.220;27.878;2023-09-19T09:27:02;6.40;;;5.80;;
75506;SDS011;64086;43.220;27.878;2023-09-19T09:29:43;5.85;;;5.35;;
75506;SDS011;64086;43.220;27.878;2023-09-19T09:34:49;6.15;;;5.55;;
75506;SDS011;64086;43.220;27.878;2023-09-19T09:37:16;11.00;;;6.05;;
75506;SDS011;64086;43.220;27.878;2023-09-19T09:39:49;5.93;;;5.43;;
75506;SDS011;64086;43.220;27.878;2023-09-19T09:42:42;7.05;;;5.28;;
75506;SDS011;64086;43.220;27.878;2023-09-19T09:45:15;8.35;;;5.80;;
75506;SDS011;64086;43.220;27.878;2023-09-19T09:47:59;5.85;;;5.35;;
75506;SDS011;64086;43.220;27.878;2023-09-19T09:50:29;5.32;;;4.78;;
75506;SDS011;64086;43.220;27.878;2023-09-19T09:53:25;5.93;;;5.38;;
75506;SDS011;64086;43.220;27.878;2023-09-19T09:55:57;5.97;;;5.45;;
75506;SDS011;64086;43.220;27.878;2023-09-19T09:58:36;6.18;;;5.60;;
75506;SDS011;64086;43.220;27.878;2023-09-19T10:01:05;5.93;;;5.40;;
75506;SDS011;64086;43.220;27.878;2023-09-19T10:03:35;5.40;;;4.90;;
75506;SDS011;64086;43.220;27.878;2023-09-19T10:06:16;6.78;;;5.38;;
75506;SDS011;64086;43.220;27.878;2023-09-19T10:09:01;5.63;;;5.20;;
75506;SDS011;64086;43.220;27.878;2023-09-19T10:11:38;6.53;;;5.05;;
75506;SDS011;64086;43.220;27.878;2023-09-19T10:14:08;5.75;;;4.90;;
75506;SDS011;64086;43.220;27.878;2023-09-19T10:16:35;6.00;;;4.90;;
75506;SDS011;64086;43.220;27.878;2023-09-19T10:19:05;7.22;;;5.43;;
75506;SDS011;64086;43.220;27.878;2023-09-19T10:21:34;11.50;;;5.80;;
75506;SDS011;64086;43.220;27.878;2023-09-19T10:24:01;6.82;;;5.25;;
75506;SDS011;64086;43.220;27.878;2023-09-19T10:26:30;6.05;;;5.38;;
75506;SDS011;64086;43.220;27.878;2023-09-19T10:28:56;6.28;;;5.78;;
75506;SDS011;64086;43.220;27.878;2023-09-19T10:31:25;5.97;;;5.32;;
75506;SDS011;64086;43.220;27.878;2023-09-19T10:33:53;7.05;;;5.97;;
75506;SDS011;64086;43.220;27.878;2023-09-19T10:36:21;6.22;;;5.72;;
75506;SDS011;64086;43.220;27.878;2023-09-19T10:38:50;6.97;;;5.15;;
75506;SDS011;64086;43.220;27.878;2023-09-19T10:41:20;5.85;;;5.28;;
75506;SDS011;64086;43.220;27.878;2023-09-19T10:43:46;6.15;;;5.65;;
75506;SDS011;64086;43.220;27.878;2023-09-19T10:46:13;11.02;;;5.97;;
75506;SDS011;64086;43.220;27.878;2023-09-19T10:48:39;6.30;;;5.28;;
75506;SDS011;64086;43.220;27.878;2023-09-19T10:51:18;6.30;;;5.70;;
75506;SDS011;64086;43.220;27.878;2023-09-19T10:53:56;6.20;;;5.60;;
75506;SDS011;64086;43.220;27.878;2023-09-19T10:56:58;6.18;;;5.50;;
75506;SDS011;64086;43.220;27.878;2023-09-19T10:59:18;6.10;;;5.60;;
75506;SDS011;64086;43.220;27.878;2023-09-19T11:01:49;6.40;;;5.78;;
75506;SDS011;64086;43.220;27.878;2023-09-19T11:09:53;6.72;;;6.03;;
75506;SDS011;64086;43.220;27.878;2023-09-19T11:12:47;6.25;;;5.60;;
75506;SDS011;64086;43.220;27.878;2023-09-19T11:16:03;6.20;;;5.60;;
75506;SDS011;64086;43.220;27.878;2023-09-19T11:26:47;6.72;;;5.97;;
75506;SDS011;64086;43.220;27.878;2023-09-19T11:29:25;6.80;;;6.20;;
75506;SDS011;64086;43.220;27.878;2023-09-19T11:31:53;6.78;;;6.13;;
75506;SDS011;64086;43.220;27.878;2023-09-19T11:39:38;6.93;;;6.25;;
75506;SDS011;64086;43.220;27.878;2023-09-19T11:48:23;7.50;;;6.45;;
75506;SDS011;64086;43.220;27.878;2023-09-19T11:50:52;7.13;;;6.35;;
75506;SDS011;64086;43.220;27.878;2023-09-19T11:53:18;8.00;;;6.40;;
75506;SDS011;64086;43.220;27.878;2023-09-19T11:55:45;8.02;;;6.18;;
75506;SDS011;64086;43.220;27.878;2023-09-19T11:58:10;7.03;;;6.22;;
75506;SDS011;64086;43.220;27.878;2023-09-19T12:00:39;6.85;;;6.22;;
75506;SDS011;64086;43.220;27.878;2023-09-19T12:03:09;6.32;;;5.72;;
75506;SDS011;64086;43.220;27.878;2023-09-19T12:05:36;6.95;;;5.55;;
75506;SDS011;64086;43.220;27.878;2023-09-19T12:08:02;6.80;;;6.07;;
75506;SDS011;64086;43.220;27.878;2023-09-19T12:10:32;6.97;;;6.38;;
75506;SDS011;64086;43.220;27.878;2023-09-19T12:12:58;6.55;;;5.95;;
75506;SDS011;64086;43.220;27.878;2023-09-19T12:15:27;6.88;;;6.18;;
75506;SDS011;64086;43.220;27.878;2023-09-19T12:17:59;6.10;;;5.50;;
75506;SDS011;64086;43.220;27.878;2023-09-19T12:20:25;6.80;;;5.63;;
75506;SDS011;64086;43.220;27.878;2023-09-19T12:22:50;7.60;;;6.20;;
75506;SDS011;64086;43.220;27.878;2023-09-19T12:25:16;6.63;;;6.03;;
75506;SDS011;64086;43.220;27.878;2023-09-19T12:27:47;6.30;;;5.78;;
75506;SDS011;64086;43.220;27.878;2023-09-19T12:30:14;6.50;;;6.00;;
75506;SDS011;64086;43.220;27.878;2023-09-19T12:32:42;6.45;;;5.85;;
75506;SDS011;64086;43.220;27.878;2023-09-19T12:35:07;8.05;;;6.30;;
75506;SDS011;64086;43.220;27.878;2023-09-19T12:37:43;6.65;;;6.05;;
75506;SDS011;64086;43.220;27.878;2023-09-19T12:40:13;6.82;;;6.13;;
75506;SDS011;64086;43.220;27.878;2023-09-19T12:42:50;7.00;;;6.40;;
75506;SDS011;64086;43.220;27.878;2023-09-19T12:45:16;6.72;;;5.55;;
75506;SDS011;64086;43.220;27.878;2023-09-19T12:53:31;6.72;;;6.10;;
75506;SDS011;64086;43.220;27.878;2023-09-19T12:55:59;8.50;;;6.53;;
75506;SDS011;64086;43.220;27.878;2023-09-19T12:58:25;7.30;;;6.00;;
75506;SDS011;64086;43.220;27.878;2023-09-19T13:00:50;8.98;;;6.55;;
75506;SDS011;64086;43.220;27.878;2023-09-19T13:03:29;6.90;;;5.90;;
75506;SDS011;64086;43.220;27.878;2023-09-19T13:06:01;7.10;;;6.40;;
75506;SDS011;64086;43.220;27.878;2023-09-19T13:08:32;6.97;;;6.13;;
75506;SDS011;64086;43.220;27.878;2023-09-19T13:11:09;6.72;;;6.13;;
75506;SDS011;64086;43.220;27.878;2023-09-19T13:13:50;6.97;;;6.13;;
75506;SDS011;64086;43.220;27.878;2023-09-19T13:16:20;7.63;;;6.88;;
75506;SDS011;64086;43.220;27.878;2023-09-19T13:18:51;7.20;;;6.50;;
75506;SDS011;64086;43.220;27.878;2023-09-19T13:21:31;8.63;;;6.13;;
75506;SDS011;64086;43.220;27.878;2023-09-19T13:24:20;6.88;;;6.20;;
75506;SDS011;64086;43.220;27.878;2023-09-19T13:26:48;6.82;;;6.28;;
75506;SDS011;64086;43.220;27.878;2023-09-19T13:29:13;7.00;;;6.32;;
75506;SDS011;64086;43.220;27.878;2023-09-19T13:31:45;6.93;;;6.22;;
75506;SDS011;64086;43.220;27.878;2023-09-19T13:34:11;6.32;;;5.70;;
75506;SDS011;64086;43.220;27.878;2023-09-19T13:36:39;7.32;;;6.25;;
75506;SDS011;64086;43.220;27.878;2023-09-19T13:39:04;6.75;;;6.07;;
75506;SDS011;64086;43.220;27.878;2023-09-19T13:41:30;6.75;;;6.07;;
75506;SDS011;64086;43.220;27.878;2023-09-19T13:43:57;6.40;;;5.90;;
75506;SDS011;64086;43.220;27.878;2023-09-19T13:46:23;7.10;;;6.40;;
75506;SDS011;64086;43.220;27.878;2023-09-19T13:48:51;7.63;;;6.40;;
75506;SDS011;64086;43.220;27.878;2023-09-19T13:51:23;7.32;;;6.60;;
75506;SDS011;64086;43.220;27.878;2023-09-19T13:53:48;6.90;;;6.30;;
75506;SDS011;64086;43.220;27.878;2023-09-19T13:56:15;7.68;;;6.32;;
75506;SDS011;64086;43.220;27.878;2023-09-19T13:58:41;6.82;;;6.13;;
75506;SDS011;64086;43.220;27.878;2023-09-19T14:01:07;8.05;;;6.65;;
75506;SDS011;64086;43.220;27.878;2023-09-19T14:03:37;6.80;;;6.25;;
75506;SDS011;64086;43.220;27.878;2023-09-19T14:06:03;6.30;;;5.47;;
75506;SDS011;64086;43.220;27.878;2023-09-19T14:08:29;7.95;;;6.07;;
75506;SDS011;64086;43.220;27.878;2023-09-19T14:10:54;7.40;;;6.63;;
75506;SDS011;64086;43.220;27.878;2023-09-19T14:13:20;7.85;;;5.80;;
75506;SDS011;64086;43.220;27.878;2023-09-19T14:15:46;7.40;;;6.53;;
75506;SDS011;64086;43.220;27.878;2023-09-19T14:18:11;7.03;;;6.00;;
75506;SDS011;64086;43.220;27.878;2023-09-19T14:20:37;7.15;;;6.13;;
75506;SDS011;64086;43.220;27.878;2023-09-19T14:23:05;6.78;;;6.18;;
75506;SDS011;64086;43.220;27.878;2023-09-19T14:25:33;6.18;;;5.68;;
75506;SDS011;64086;43.220;27.878;2023-09-19T14:27:59;7.43;;;6.10;;
75506;SDS011;64086;43.220;27.878;2023-09-19T14:30:25;6.63;;;6.00;;
75506;SDS011;64086;43.220;27.878;2023-09-19T14:32:51;7.00;;;6.30;;
75506;SDS011;64086;43.220;27.878;2023-09-19T14:35:17;7.53;;;6.15;;
75506;SDS011;64086;43.220;27.878;2023-09-19T14:37:42;7.20;;;5.82;;
75506;SDS011;64086;43.220;27.878;2023-09-19T14:40:08;8.10;;;6.47;;
75506;SDS011;64086;43.220;27.878;2023-09-19T14:42:41;6.97;;;5.95;;
75506;SDS011;64086;43.220;27.878;2023-09-19T14:45:06;6.53;;;5.93;;
75506;SDS011;64086;43.220;27.878;2023-09-19T14:47:32;7.97;;;6.60;;
75506;SDS011;64086;43.220;27.878;2023-09-19T14:50:01;6.65;;;6.00;;
75506;SDS011;64086;43.220;27.878;2023-09-19T14:52:31;6.25;;;5.65;;
75506;SDS011;64086;43.220;27.878;2023-09-19T14:54:57;6.80;;;6.10;;
75506;SDS011;64086;43.220;27.878;2023-09-19T14:57:23;7.13;;;6.43;;
75506;SDS011;64086;43.220;27.878;2023-09-19T14:59:49;9.40;;;6.25;;
75506;SDS011;64086;43.220;27.878;2023-09-19T15:02:15;6.55;;;5.82;;
75506;SDS011;64086;43.220;27.878;2023-09-19T15:04:42;7.13;;;6.00;;
75506;SDS011;64086;43.220;27.878;2023-09-19T15:07:09;8.25;;;5.85;;
75506;SDS011;64086;43.220;27.878;2023-09-19T15:09:35;6.50;;;5.90;;
75506;SDS011;64086;43.220;27.878;2023-09-19T15:12:01;6.40;;;5.80;;
75506;SDS011;64086;43.220;27.878;2023-09-19T15:14:27;7.93;;;6.43;;
75506;SDS011;64086;43.220;27.878;2023-09-19T15:16:54;6.50;;;5.57;;